createdAt,value
2017-09-25T00:00:10.515Z,0
2017-09-25T00:01:10.539Z,0
2017-09-25T00:02:10.238Z,0
2017-09-25T00:03:10.629Z,0
2017-09-25T00:04:25.199Z,0
2017-09-25T00:05:10.308Z,0
2017-09-25T00:06:10.746Z,0
2017-09-25T00:08:10.693Z,0
2017-09-25T00:09:10.720Z,0
2017-09-25T00:10:25.014Z,0
2017-09-25T00:11:25.355Z,0
2017-09-25T00:12:10.788Z,0
2017-09-25T00:13:10.499Z,0
2017-09-25T00:14:10.843Z,0
2017-09-25T00:15:10.542Z,0
2017-09-25T00:16:10.882Z,0
2017-09-25T00:17:10.901Z,0
2017-09-25T00:18:10.925Z,0
2017-09-25T00:19:10.955Z,0
2017-09-25T00:20:25.560Z,0
2017-09-25T00:21:10.992Z,0
2017-09-25T00:22:11.016Z,0
2017-09-25T00:24:10.743Z,0
2017-09-25T00:25:10.762Z,0
2017-09-25T00:27:10.815Z,0
2017-09-25T00:28:25.743Z,0
2017-09-25T00:29:11.178Z,0
2017-09-25T00:30:11.196Z,0
2017-09-25T00:31:11.224Z,0
2017-09-25T00:32:11.243Z,0
2017-09-25T00:33:11.265Z,0
2017-09-25T00:34:25.889Z,0
2017-09-25T00:35:11.309Z,0
2017-09-25T00:36:25.606Z,0
2017-09-25T00:37:11.358Z,0
2017-09-25T00:38:25.655Z,0
2017-09-25T00:39:25.995Z,0
2017-09-25T00:40:11.428Z,0
2017-09-25T00:41:11.446Z,0
2017-09-25T00:42:11.466Z,0
2017-09-25T00:43:11.498Z,0
2017-09-25T00:44:11.516Z,0
2017-09-25T00:45:11.544Z,0
2017-09-25T00:46:11.243Z,0
2017-09-25T00:47:11.265Z,0
2017-09-25T00:48:11.608Z,0
2017-09-25T00:49:11.631Z,0
2017-09-25T00:50:11.654Z,0
2017-09-25T00:51:25.945Z,0
2017-09-25T00:52:11.701Z,0
2017-09-25T00:53:11.401Z,0
2017-09-25T00:54:26.019Z,0
2017-09-25T00:55:11.449Z,0
2017-09-25T00:56:11.471Z,0
2017-09-25T00:57:11.815Z,0
2017-09-25T00:59:11.854Z,0
2017-09-25T01:00:11.559Z,0
2017-09-25T01:01:11.583Z,0
2017-09-25T01:02:11.923Z,0
2017-09-25T01:03:12.003Z,0
2017-09-25T01:04:11.656Z,0
2017-09-25T01:05:11.996Z,0
2017-09-25T01:06:12.010Z,0
2017-09-25T01:07:11.718Z,0
2017-09-25T01:08:12.073Z,0
2017-09-25T01:09:26.673Z,0
2017-09-25T01:10:12.111Z,0
2017-09-25T01:11:12.140Z,0
2017-09-25T01:12:12.152Z,0
2017-09-25T01:13:12.169Z,0
2017-09-25T01:14:11.875Z,0
2017-09-25T01:15:12.216Z,0
2017-09-25T01:16:11.922Z,0
2017-09-25T01:17:11.942Z,0
2017-09-25T01:18:12.288Z,0
2017-09-25T01:19:11.995Z,0
2017-09-25T01:20:12.012Z,0
2017-09-25T01:21:11.718Z,0
2017-09-25T01:22:26.969Z,0
2017-09-25T01:23:26.989Z,0
2017-09-25T01:24:12.416Z,0
2017-09-25T01:25:12.441Z,0
2017-09-25T01:26:12.464Z,0
2017-09-25T01:27:12.165Z,0
2017-09-25T01:28:12.194Z,0
2017-09-25T01:29:12.216Z,0
2017-09-25T01:30:12.233Z,0
2017-09-25T01:31:12.576Z,0
2017-09-25T01:32:12.279Z,0
2017-09-25T01:33:12.626Z,0
2017-09-25T01:34:12.643Z,0
2017-09-25T01:35:12.662Z,0
2017-09-25T01:36:12.373Z,0
2017-09-25T01:37:12.712Z,0
2017-09-25T01:38:12.736Z,0
2017-09-25T01:39:27.350Z,0
2017-09-25T01:41:27.395Z,0
2017-09-25T01:42:12.839Z,0
2017-09-25T01:43:12.844Z,0
2017-09-25T01:44:12.874Z,0
2017-09-25T01:45:12.894Z,0
2017-09-25T01:46:12.915Z,0
2017-09-25T01:47:12.943Z,0
2017-09-25T01:48:12.962Z,0
2017-09-25T01:49:12.980Z,0
2017-09-25T01:50:12.717Z,0
2017-09-25T01:51:13.026Z,0
2017-09-25T01:52:13.048Z,0
2017-09-25T01:53:13.070Z,0
2017-09-25T01:54:13.093Z,0
2017-09-25T01:55:42.296Z,0
2017-09-25T01:57:13.163Z,0
2017-09-25T01:58:27.775Z,0
2017-09-25T01:59:13.201Z,0
2017-09-25T02:00:13.230Z,0
2017-09-25T02:01:12.936Z,0
2017-09-25T02:04:13.320Z,0
2017-09-25T02:05:13.338Z,0
2017-09-25T02:06:13.046Z,0
2017-09-25T02:07:13.061Z,0
2017-09-25T02:08:13.436Z,0
2017-09-25T02:09:13.115Z,0
2017-09-25T02:10:13.451Z,0
2017-09-25T02:11:28.066Z,0
2017-09-25T02:12:13.179Z,0
2017-09-25T02:13:27.791Z,0
2017-09-25T02:14:27.816Z,0
2017-09-25T02:15:13.249Z,0
2017-09-25T02:16:13.269Z,0
2017-09-25T02:17:13.288Z,0
2017-09-25T02:18:13.636Z,0
2017-09-25T02:19:13.333Z,0
2017-09-25T02:20:13.675Z,0
2017-09-25T02:21:13.697Z,0
2017-09-25T02:22:13.402Z,0
2017-09-25T02:23:13.109Z,0
2017-09-25T02:24:13.446Z,0
2017-09-25T02:25:13.787Z,0
2017-09-25T02:26:28.398Z,0
2017-09-25T02:29:13.559Z,0
2017-09-25T02:30:13.582Z,0
2017-09-25T02:31:13.929Z,0
2017-09-25T02:32:13.941Z,0
2017-09-25T02:33:14.020Z,0
2017-09-25T02:34:14.007Z,0
2017-09-25T02:35:14.011Z,0
2017-09-25T02:36:14.033Z,0
2017-09-25T02:37:28.656Z,0
2017-09-25T02:38:28.712Z,0
2017-09-25T02:39:14.102Z,0
2017-09-25T02:40:14.124Z,0
2017-09-25T02:42:13.847Z,0
2017-09-25T02:43:14.193Z,0
2017-09-25T02:44:14.212Z,0
2017-09-25T02:45:28.507Z,0
2017-09-25T02:46:28.849Z,0
2017-09-25T02:47:13.960Z,0
2017-09-25T02:48:14.305Z,0
2017-09-25T02:49:14.329Z,0
2017-09-25T02:50:14.043Z,0
2017-09-25T02:51:14.048Z,0
2017-09-25T02:52:14.391Z,0
2017-09-25T02:53:14.098Z,0
2017-09-25T02:54:14.118Z,0
2017-09-25T02:55:13.821Z,0
2017-09-25T02:56:14.480Z,0
2017-09-25T02:57:14.179Z,0
2017-09-25T02:58:28.797Z,0
2017-09-25T02:59:14.229Z,0
2017-09-25T03:00:14.574Z,0
2017-09-25T03:01:14.589Z,0
2017-09-25T03:02:29.207Z,0
2017-09-25T03:04:14.660Z,0
2017-09-25T03:05:29.002Z,0
2017-09-25T03:06:14.382Z,0
2017-09-25T03:07:14.728Z,0
2017-09-25T03:08:14.426Z,0
2017-09-25T03:09:14.450Z,0
2017-09-25T03:10:14.472Z,0
2017-09-25T03:11:14.814Z,0
2017-09-25T03:12:14.841Z,0
2017-09-25T03:13:14.539Z,0
2017-09-25T03:14:29.156Z,0
2017-09-25T03:15:14.912Z,0
2017-09-25T03:16:13.968Z,0
2017-09-25T03:17:29.541Z,0
2017-09-25T03:18:14.964Z,0
2017-09-25T03:19:14.673Z,0
2017-09-25T03:20:14.693Z,0
2017-09-25T03:21:29.310Z,0
2017-09-25T03:22:15.059Z,0
2017-09-25T03:23:15.088Z,0
2017-09-25T03:24:15.099Z,0
2017-09-25T03:25:15.124Z,0
2017-09-25T03:26:15.151Z,0
2017-09-25T03:27:14.849Z,0
2017-09-25T03:28:14.235Z,0
2017-09-25T03:29:15.216Z,0
2017-09-25T03:30:29.829Z,0
2017-09-25T03:31:14.948Z,0
2017-09-25T03:32:15.282Z,0
2017-09-25T03:33:15.306Z,0
2017-09-25T03:34:29.915Z,0
2017-09-25T03:35:29.941Z,0
2017-09-25T03:37:29.980Z,0
2017-09-25T03:38:15.147Z,0
2017-09-25T03:39:15.438Z,0
2017-09-25T03:40:15.464Z,0
2017-09-25T03:41:15.476Z,0
2017-09-25T03:42:15.236Z,0
2017-09-25T03:43:15.207Z,0
2017-09-25T03:45:15.573Z,0
2017-09-25T03:46:30.188Z,0
2017-09-25T03:47:15.295Z,0
2017-09-25T03:48:15.632Z,0
2017-09-25T03:51:15.706Z,0
2017-09-25T03:53:30.339Z,0
2017-09-25T03:54:15.453Z,0
2017-09-25T03:55:15.474Z,0
2017-09-25T03:56:15.815Z,0
2017-09-25T03:57:15.885Z,0
2017-09-25T03:58:15.855Z,0
2017-09-25T03:59:15.877Z,0
2017-09-25T04:00:15.901Z,0
2017-09-25T04:01:30.519Z,0
2017-09-25T04:02:30.545Z,0
2017-09-25T04:03:15.992Z,0
2017-09-25T04:04:15.672Z,0
2017-09-25T04:05:16.015Z,0
2017-09-25T04:06:16.039Z,0
2017-09-25T04:07:16.064Z,0
2017-09-25T04:08:30.670Z,0
2017-09-25T04:09:16.110Z,0
2017-09-25T04:10:16.123Z,0
2017-09-25T04:11:16.148Z,0
2017-09-25T04:12:16.171Z,0
2017-09-25T04:13:16.229Z,0
2017-09-25T04:14:16.208Z,0
2017-09-25T04:15:30.831Z,0
2017-09-25T04:16:15.944Z,0
2017-09-25T04:17:15.964Z,0
2017-09-25T04:18:15.983Z,0
2017-09-25T04:19:16.003Z,0
2017-09-25T04:20:15.711Z,0
2017-09-25T04:21:16.369Z,0
2017-09-25T04:22:30.664Z,0
2017-09-25T04:23:31.006Z,0
2017-09-25T04:24:16.446Z,0
2017-09-25T04:25:31.062Z,0
2017-09-25T04:26:16.159Z,4
2017-09-25T04:27:16.192Z,4
2017-09-25T04:28:16.206Z,0
2017-09-25T04:29:16.551Z,0
2017-09-25T04:30:16.253Z,4
2017-09-25T04:31:16.598Z,4
2017-09-25T04:33:31.226Z,4
2017-09-25T04:34:16.343Z,4
2017-09-25T04:35:16.362Z,4
2017-09-25T04:36:16.062Z,4
2017-09-25T04:38:16.747Z,4
2017-09-25T04:39:16.451Z,8
2017-09-25T04:40:16.793Z,12
2017-09-25T04:41:16.816Z,16
2017-09-25T04:42:16.571Z,16
2017-09-25T04:43:16.859Z,20
2017-09-25T04:44:16.560Z,28
2017-09-25T04:45:16.578Z,32
2017-09-25T04:46:16.605Z,32
2017-09-25T04:47:16.949Z,40
2017-09-25T04:48:16.649Z,44
2017-09-25T04:49:31.581Z,48
2017-09-25T04:50:16.374Z,52
2017-09-25T04:51:17.038Z,60
2017-09-25T04:52:17.058Z,68
2017-09-25T04:53:17.078Z,76
2017-09-25T04:54:17.100Z,92
2017-09-25T04:55:17.125Z,104
2017-09-25T04:56:16.828Z,120
2017-09-25T04:57:17.176Z,132
2017-09-25T04:58:17.194Z,144
2017-09-25T04:59:17.208Z,160
2017-09-25T05:00:17.234Z,172
2017-09-25T05:01:16.966Z,192
2017-09-25T05:02:16.960Z,212
2017-09-25T05:03:16.979Z,228
2017-09-25T05:04:17.005Z,244
2017-09-25T05:05:31.934Z,256
2017-09-25T05:06:17.045Z,276
2017-09-25T05:08:17.416Z,324
2017-09-25T05:09:17.133Z,344
2017-09-25T05:10:17.140Z,364
2017-09-25T05:11:32.064Z,420
2017-09-25T05:12:17.500Z,436
2017-09-25T05:13:17.203Z,444
2017-09-25T05:14:16.586Z,448
2017-09-25T05:15:17.247Z,424
2017-09-25T05:16:16.947Z,408
2017-09-25T05:17:17.610Z,400
2017-09-25T05:18:17.631Z,384
2017-09-25T05:19:17.652Z,388
2017-09-25T05:20:17.676Z,440
2017-09-25T05:21:46.878Z,500
2017-09-25T05:23:32.335Z,396
2017-09-25T05:24:31.717Z,344
2017-09-25T05:25:17.793Z,324
2017-09-25T05:26:32.079Z,300
2017-09-25T05:27:32.101Z,352
2017-09-25T05:28:17.849Z,352
2017-09-25T05:29:17.567Z,304
2017-09-25T05:30:17.897Z,300
2017-09-25T05:31:17.920Z,328
2017-09-25T05:32:17.940Z,372
2017-09-25T05:33:17.959Z,440
2017-09-25T05:34:17.988Z,512
2017-09-25T05:35:17.735Z,520
2017-09-25T05:36:32.624Z,520
2017-09-25T05:37:17.729Z,612
2017-09-25T05:38:18.072Z,668
2017-09-25T05:39:17.784Z,608
2017-09-25T05:40:18.113Z,596
2017-09-25T05:41:17.504Z,628
2017-09-25T05:42:18.167Z,604
2017-09-25T05:43:17.872Z,592
2017-09-25T05:44:18.206Z,640
2017-09-25T05:45:18.228Z,684
2017-09-25T05:46:18.247Z,740
2017-09-25T05:47:18.274Z,808
2017-09-25T05:48:18.352Z,784
2017-09-25T05:49:17.998Z,832
2017-09-25T05:50:32.933Z,888
2017-09-25T05:51:18.038Z,872
2017-09-25T05:52:18.061Z,848
2017-09-25T05:53:18.083Z,864
2017-09-25T05:54:18.422Z,848
2017-09-25T05:55:18.490Z,904
2017-09-25T05:56:18.150Z,980
2017-09-25T05:57:18.492Z,928
2017-09-25T05:58:18.513Z,844
2017-09-25T05:59:32.812Z,788
2017-09-25T06:00:18.558Z,788
2017-09-25T06:01:18.263Z,808
2017-09-25T06:02:18.597Z,816
2017-09-25T06:03:18.307Z,836
2017-09-25T06:04:18.324Z,864
2017-09-25T06:05:18.348Z,888
2017-09-25T06:06:18.689Z,824
2017-09-25T06:07:18.392Z,868
2017-09-25T06:08:33.006Z,912
2017-09-25T06:09:18.751Z,956
2017-09-25T06:10:18.780Z,992
2017-09-25T06:11:33.391Z,988
2017-09-25T06:12:33.098Z,1064
2017-09-25T06:13:18.849Z,988
2017-09-25T06:14:18.869Z,1104
2017-09-25T06:15:18.888Z,1088
2017-09-25T06:16:18.598Z,1120
2017-09-25T06:17:33.520Z,1248
2017-09-25T06:18:18.953Z,1336
2017-09-25T06:19:18.977Z,1428
2017-09-25T06:20:18.364Z,1548
2017-09-25T06:21:19.028Z,1648
2017-09-25T06:22:18.723Z,1888
2017-09-25T06:23:18.429Z,1932
2017-09-25T06:24:33.365Z,1620
2017-09-25T06:25:19.109Z,1560
2017-09-25T06:26:19.130Z,1568
2017-09-25T06:28:18.858Z,1612
2017-09-25T06:30:33.493Z,1768
2017-09-25T06:31:18.927Z,1688
2017-09-25T06:32:19.264Z,1572
2017-09-25T06:33:19.288Z,1556
2017-09-25T06:34:19.308Z,1468
2017-09-25T06:35:18.696Z,1328
2017-09-25T06:36:19.082Z,1312
2017-09-25T06:37:19.371Z,1368
2017-09-25T06:38:19.396Z,1292
2017-09-25T06:39:19.426Z,1272
2017-09-25T06:40:34.031Z,1220
2017-09-25T06:41:19.150Z,1100
2017-09-25T06:42:19.167Z,1004
2017-09-25T06:43:19.194Z,992
2017-09-25T06:44:19.216Z,1112
2017-09-25T06:45:19.237Z,1184
2017-09-25T06:46:19.255Z,1296
2017-09-25T06:47:19.285Z,1396
2017-09-25T06:48:19.300Z,1432
2017-09-25T06:49:19.324Z,1656
2017-09-25T06:51:19.365Z,2240
2017-09-25T06:54:19.439Z,2632
2017-09-25T06:55:19.456Z,2656
2017-09-25T06:56:34.398Z,2536
2017-09-25T06:57:19.502Z,2556
2017-09-25T06:59:19.553Z,2276
2017-09-25T07:00:34.479Z,1996
2017-09-25T07:01:19.632Z,1776
2017-09-25T07:02:19.623Z,1732
2017-09-25T07:03:19.958Z,1780
2017-09-25T07:04:19.660Z,1752
2017-09-25T07:06:20.027Z,1484
2017-09-25T07:07:19.730Z,1296
2017-09-25T07:08:34.671Z,1248
2017-09-25T07:09:20.097Z,1240
2017-09-25T07:10:19.795Z,1196
2017-09-25T07:11:34.779Z,1144
2017-09-25T07:12:20.166Z,1120
2017-09-25T07:14:20.212Z,1112
2017-09-25T07:15:19.594Z,1076
2017-09-25T07:16:34.844Z,1100
2017-09-25T07:17:34.864Z,1044
2017-09-25T07:18:20.292Z,1008
2017-09-25T07:19:20.003Z,904
2017-09-25T07:20:20.340Z,876
2017-09-25T07:22:20.067Z,804
2017-09-25T07:23:20.411Z,772
2017-09-25T07:24:20.115Z,756
2017-09-25T07:25:20.132Z,840
2017-09-25T07:26:19.836Z,952
2017-09-25T07:27:20.499Z,1072
2017-09-25T07:28:35.114Z,1164
2017-09-25T07:29:35.137Z,1132
2017-09-25T07:30:35.157Z,1300
2017-09-25T07:31:20.586Z,1528
2017-09-25T07:32:35.206Z,1904
2017-09-25T07:33:20.635Z,2008
2017-09-25T07:34:20.655Z,2188
2017-09-25T07:35:20.040Z,1988
2017-09-25T07:36:20.701Z,1736
2017-09-25T07:37:20.401Z,1560
2017-09-25T07:38:20.747Z,1612
2017-09-25T07:39:20.770Z,1712
2017-09-25T07:40:20.786Z,1884
2017-09-25T07:41:20.812Z,1868
2017-09-25T07:42:20.839Z,1848
2017-09-25T07:43:34.809Z,1848
2017-09-25T07:44:20.875Z,1760
2017-09-25T07:45:20.903Z,1796
2017-09-25T07:46:20.605Z,1856
2017-09-25T07:47:20.309Z,1892
2017-09-25T07:48:20.651Z,1848
2017-09-25T07:49:20.670Z,1812
2017-09-25T07:51:21.037Z,1572
2017-09-25T07:52:20.747Z,1516
2017-09-25T07:53:21.083Z,1476
2017-09-25T07:54:20.789Z,1480
2017-09-25T07:55:20.803Z,1612
2017-09-25T07:56:20.828Z,1796
2017-09-25T07:57:20.850Z,1768
2017-09-25T07:58:20.873Z,1660
2017-09-25T07:59:35.490Z,1540
2017-09-25T08:00:20.916Z,1572
2017-09-25T08:01:20.940Z,1852
2017-09-25T08:02:20.970Z,1896
2017-09-25T08:03:20.990Z,1636
2017-09-25T08:04:21.008Z,1516
2017-09-25T08:05:21.348Z,1488
2017-09-25T08:06:21.374Z,1508
2017-09-25T08:07:21.079Z,1440
2017-09-25T08:08:21.426Z,1356
2017-09-25T08:09:21.439Z,1316
2017-09-25T08:10:21.460Z,1216
2017-09-25T08:11:21.482Z,1148
2017-09-25T08:12:21.510Z,1172
2017-09-25T08:13:21.209Z,1220
2017-09-25T08:14:21.553Z,1236
2017-09-25T08:15:36.167Z,1320
2017-09-25T08:17:21.616Z,1340
2017-09-25T08:18:21.648Z,1492
2017-09-25T08:19:35.939Z,2048
2017-09-25T08:20:35.961Z,2472
2017-09-25T08:21:21.707Z,2704
2017-09-25T08:22:36.324Z,3240
2017-09-25T08:23:21.764Z,3284
2017-09-25T08:24:21.458Z,3184
2017-09-25T08:25:21.483Z,3188
2017-09-25T08:27:21.849Z,3256
2017-09-25T08:28:21.867Z,3332
2017-09-25T08:29:21.887Z,3492
2017-09-25T08:30:36.511Z,3472
2017-09-25T08:31:36.210Z,3432
2017-09-25T08:32:21.650Z,3368
2017-09-25T08:33:21.985Z,3248
2017-09-25T08:34:22.057Z,3244
2017-09-25T08:35:36.299Z,3452
2017-09-25T08:36:36.644Z,3408
2017-09-25T08:37:36.665Z,3412
2017-09-25T08:38:21.779Z,3424
2017-09-25T08:39:21.800Z,3492
2017-09-25T08:40:21.823Z,3468
2017-09-25T08:41:21.525Z,3492
2017-09-25T08:42:21.550Z,3360
2017-09-25T08:43:22.209Z,3168
2017-09-25T08:44:21.913Z,2996
2017-09-25T08:45:22.259Z,2992
2017-09-25T08:46:36.872Z,3012
2017-09-25T08:47:22.317Z,2976
2017-09-25T08:48:22.014Z,2936
2017-09-25T08:49:22.027Z,2772
2017-09-25T08:50:22.370Z,2480
2017-09-25T08:51:21.759Z,2376
2017-09-25T08:52:22.419Z,2180
2017-09-25T08:53:22.495Z,1940
2017-09-25T08:54:22.143Z,1904
2017-09-25T08:55:22.492Z,1884
2017-09-25T08:56:22.513Z,1816
2017-09-25T08:57:22.209Z,1728
2017-09-25T08:58:22.599Z,1684
2017-09-25T08:59:21.943Z,1744
2017-09-25T09:00:22.599Z,2008
2017-09-25T09:01:22.619Z,2076
2017-09-25T09:02:22.645Z,1932
2017-09-25T09:03:22.718Z,1840
2017-09-25T09:04:37.285Z,1992
2017-09-25T09:05:22.746Z,2036
2017-09-25T09:06:22.798Z,2192
2017-09-25T09:07:22.798Z,2436
2017-09-25T09:08:22.783Z,2644
2017-09-25T09:09:22.806Z,2676
2017-09-25T09:10:22.823Z,2676
2017-09-25T09:11:22.850Z,2696
2017-09-25T09:12:22.877Z,2604
2017-09-25T09:13:22.576Z,2556
2017-09-25T09:14:22.599Z,2632
2017-09-25T09:15:22.942Z,2492
2017-09-25T09:16:37.563Z,2196
2017-09-25T09:17:23.002Z,2264
2017-09-25T09:18:37.602Z,2376
2017-09-25T09:19:23.043Z,2488
2017-09-25T09:20:23.053Z,2644
2017-09-25T09:21:23.129Z,2568
2017-09-25T09:22:23.100Z,2476
2017-09-25T09:23:37.718Z,2212
2017-09-25T09:24:22.828Z,1948
2017-09-25T09:25:23.208Z,1496
2017-09-25T09:26:23.196Z,1248
2017-09-25T09:27:23.217Z,1332
2017-09-25T09:28:23.247Z,1392
2017-09-25T09:29:23.262Z,1348
2017-09-25T09:30:23.289Z,1268
2017-09-25T09:31:23.308Z,1272
2017-09-25T09:32:23.327Z,1140
2017-09-25T09:33:23.360Z,1088
2017-09-25T09:34:37.963Z,1332
2017-09-25T09:35:23.399Z,1288
2017-09-25T09:36:23.431Z,1300
2017-09-25T09:37:23.449Z,1396
2017-09-25T09:38:23.150Z,1504
2017-09-25T09:39:23.488Z,1332
2017-09-25T09:40:38.102Z,1360
2017-09-25T09:41:23.534Z,1436
2017-09-25T09:42:23.557Z,1420
2017-09-25T09:43:23.260Z,1436
2017-09-25T09:44:23.280Z,1496
2017-09-25T09:45:23.307Z,1512
2017-09-25T09:46:23.652Z,1572
2017-09-25T09:47:23.353Z,1900
2017-09-25T09:48:23.055Z,1992
2017-09-25T09:49:23.405Z,1912
2017-09-25T09:50:38.327Z,1836
2017-09-25T09:51:23.439Z,1864
2017-09-25T09:52:38.060Z,1992
2017-09-25T09:53:38.396Z,2108
2017-09-25T09:54:38.419Z,2256
2017-09-25T09:55:23.850Z,2352
2017-09-25T09:56:23.234Z,2680
2017-09-25T09:57:23.262Z,2724
2017-09-25T09:58:23.598Z,2528
2017-09-25T09:59:23.303Z,2164
2017-09-25T10:00:23.646Z,2036
2017-09-25T10:01:23.350Z,1980
2017-09-25T10:02:24.013Z,2084
2017-09-25T10:03:23.717Z,2172
2017-09-25T10:04:23.420Z,2328
2017-09-25T10:05:23.437Z,2436
2017-09-25T10:06:38.687Z,2516
2017-09-25T10:07:24.121Z,2560
2017-09-25T10:08:24.143Z,2592
2017-09-25T10:09:24.175Z,2624
2017-09-25T10:10:38.783Z,2604
2017-09-25T10:11:23.896Z,2572
2017-09-25T10:12:23.596Z,2480
2017-09-25T10:13:23.621Z,2404
2017-09-25T10:14:23.969Z,2472
2017-09-25T10:15:23.983Z,2556
2017-09-25T10:16:24.331Z,2472
2017-09-25T10:17:24.354Z,2620
2017-09-25T10:18:24.055Z,2608
2017-09-25T10:19:24.396Z,2504
2017-09-25T10:20:24.422Z,2152
2017-09-25T10:21:38.711Z,1944
2017-09-25T10:22:24.141Z,1984
2017-09-25T10:23:24.482Z,1912
2017-09-25T10:24:39.101Z,1704
2017-09-25T10:25:38.804Z,1668
2017-09-25T10:26:24.559Z,1508
2017-09-25T10:27:24.581Z,1332
2017-09-25T10:28:39.188Z,1376
2017-09-25T10:29:24.624Z,1460
2017-09-25T10:30:24.650Z,1520
2017-09-25T10:31:24.663Z,1652
2017-09-25T10:32:24.735Z,1676
2017-09-25T10:33:24.392Z,1776
2017-09-25T10:34:24.732Z,1884
2017-09-25T10:35:24.761Z,1904
2017-09-25T10:36:24.780Z,2020
2017-09-25T10:37:24.488Z,1920
2017-09-25T10:38:24.821Z,1836
2017-09-25T10:39:24.845Z,1924
2017-09-25T10:41:24.578Z,1940
2017-09-25T10:42:24.913Z,1980
2017-09-25T10:43:24.942Z,1728
2017-09-25T10:44:39.548Z,1524
2017-09-25T10:45:39.572Z,1460
2017-09-25T10:46:25.006Z,1456
2017-09-25T10:47:25.028Z,1360
2017-09-25T10:48:25.057Z,1336
2017-09-25T10:49:24.754Z,1420
2017-09-25T10:50:25.096Z,1500
2017-09-25T10:51:25.113Z,1592
2017-09-25T10:52:25.141Z,1924
2017-09-25T10:53:39.752Z,2904
2017-09-25T10:54:24.862Z,3544
2017-09-25T10:56:24.911Z,4160
2017-09-25T10:57:39.841Z,4228
2017-09-25T10:58:25.286Z,4312
2017-09-25T10:59:39.903Z,4484
2017-09-25T11:00:25.327Z,4732
2017-09-25T11:01:25.023Z,5032
2017-09-25T11:02:25.046Z,5328
2017-09-25T11:03:24.750Z,5236
2017-09-25T11:04:25.415Z,4908
2017-09-25T11:05:25.432Z,4840
2017-09-25T11:06:25.138Z,5032
2017-09-25T11:07:25.161Z,5420
2017-09-25T11:08:25.180Z,5392
2017-09-25T11:09:39.801Z,5472
2017-09-25T11:10:25.225Z,5644
2017-09-25T11:11:40.171Z,5996
2017-09-25T11:12:40.186Z,6112
2017-09-25T11:14:39.909Z,5096
2017-09-25T11:15:25.668Z,5196
2017-09-25T11:16:25.366Z,5580
2017-09-25T11:17:25.704Z,6140
2017-09-25T11:18:25.730Z,6472
2017-09-25T11:19:25.438Z,6572
2017-09-25T11:21:25.796Z,6416
2017-09-25T11:22:25.821Z,6380
2017-09-25T11:23:25.527Z,6364
2017-09-25T11:24:25.863Z,6436
2017-09-25T11:25:40.481Z,6472
2017-09-25T11:26:25.912Z,6480
2017-09-25T11:27:40.530Z,6604
2017-09-25T11:28:25.331Z,6668
2017-09-25T11:29:25.666Z,6680
2017-09-25T11:30:25.688Z,6828
2017-09-25T11:31:26.033Z,6908
2017-09-25T11:32:25.735Z,6816
2017-09-25T11:33:25.756Z,7028
2017-09-25T11:34:25.780Z,7660
2017-09-25T11:35:26.124Z,8024
2017-09-25T11:36:25.833Z,8320
2017-09-25T11:37:25.851Z,7904
2017-09-25T11:38:25.554Z,7132
2017-09-25T11:39:26.212Z,6616
2017-09-25T11:40:25.921Z,5528
2017-09-25T11:41:40.857Z,5088
2017-09-25T11:42:25.659Z,4972
2017-09-25T11:43:25.672Z,4756
2017-09-25T11:45:40.956Z,4380
2017-09-25T11:46:26.060Z,4140
2017-09-25T11:47:26.410Z,3788
2017-09-25T11:48:26.462Z,3504
2017-09-25T11:49:25.817Z,3304
2017-09-25T11:50:26.173Z,3148
2017-09-25T11:51:26.494Z,2864
2017-09-25T11:52:26.518Z,2532
2017-09-25T11:53:26.541Z,2080
2017-09-25T11:54:26.262Z,1500
2017-09-25T11:55:26.591Z,1076
2017-09-25T11:56:40.888Z,844
2017-09-25T11:58:26.660Z,924
2017-09-25T11:59:41.281Z,1104
2017-09-25T12:00:26.389Z,1208
2017-09-25T12:01:26.738Z,1252
2017-09-25T12:02:26.752Z,1292
2017-09-25T12:03:26.143Z,1288
2017-09-25T12:04:26.809Z,1308
2017-09-25T12:05:26.827Z,1288
2017-09-25T12:06:26.533Z,1348
2017-09-25T12:07:26.871Z,1664
2017-09-25T12:08:26.574Z,1992
2017-09-25T12:09:26.598Z,2328
2017-09-25T12:10:26.624Z,2648
2017-09-25T12:11:26.965Z,3084
2017-09-25T12:12:26.666Z,3380
2017-09-25T12:13:26.693Z,3400
2017-09-25T12:14:26.714Z,3320
2017-09-25T12:15:41.652Z,3460
2017-09-25T12:16:41.351Z,3772
2017-09-25T12:17:41.694Z,4168
2017-09-25T12:18:26.806Z,4428
2017-09-25T12:19:26.829Z,4628
2017-09-25T12:20:26.858Z,4736
2017-09-25T12:21:26.557Z,4956
2017-09-25T12:22:27.217Z,5084
2017-09-25T12:23:27.245Z,5100
2017-09-25T12:24:26.943Z,5108
2017-09-25T12:25:26.970Z,5224
2017-09-25T12:26:27.309Z,5264
2017-09-25T12:28:41.307Z,5168
2017-09-25T12:29:27.095Z,5244
2017-09-25T12:30:42.045Z,5508
2017-09-25T12:31:27.432Z,5688
2017-09-25T12:32:27.127Z,5832
2017-09-25T12:33:42.096Z,6196
2017-09-25T12:34:26.858Z,6448
2017-09-25T12:35:42.105Z,6756
2017-09-25T12:36:27.229Z,6908
2017-09-25T12:37:27.244Z,6652
2017-09-25T12:38:27.267Z,6240
2017-09-25T12:39:27.294Z,6068
2017-09-25T12:40:27.636Z,5896
2017-09-25T12:41:27.666Z,6052
2017-09-25T12:42:27.737Z,6172
2017-09-25T12:43:27.706Z,6412
2017-09-25T12:44:42.320Z,6488
2017-09-25T12:45:27.441Z,6336
2017-09-25T12:46:27.456Z,6184
2017-09-25T12:47:42.387Z,6348
2017-09-25T12:48:27.503Z,6320
2017-09-25T12:49:42.115Z,6144
2017-09-25T12:50:27.552Z,5892
2017-09-25T12:51:42.480Z,5608
2017-09-25T12:52:27.596Z,5296
2017-09-25T12:53:27.622Z,4800
2017-09-25T12:54:27.957Z,4572
2017-09-25T12:55:27.984Z,4388
2017-09-25T12:56:28.012Z,4020
2017-09-25T12:57:27.716Z,3944
2017-09-25T12:59:27.757Z,3864
2017-09-25T13:00:42.691Z,3724
2017-09-25T13:01:42.714Z,3920
2017-09-25T13:02:28.152Z,3980
2017-09-25T13:03:28.167Z,4088
2017-09-25T13:04:28.195Z,3816
2017-09-25T13:05:28.223Z,3404
2017-09-25T13:06:42.832Z,3136
2017-09-25T13:07:27.951Z,3032
2017-09-25T13:08:28.332Z,3008
2017-09-25T13:09:27.993Z,3200
2017-09-25T13:10:28.334Z,3864
2017-09-25T13:11:28.361Z,4232
2017-09-25T13:12:28.059Z,4520
2017-09-25T13:13:28.088Z,4444
2017-09-25T13:14:28.154Z,4152
2017-09-25T13:16:42.745Z,3796
2017-09-25T13:17:28.504Z,3460
2017-09-25T13:18:28.209Z,3096
2017-09-25T13:19:42.498Z,2992
2017-09-25T13:21:28.274Z,3372
2017-09-25T13:22:28.299Z,3168
2017-09-25T13:23:27.999Z,2668
2017-09-25T13:24:28.343Z,2552
2017-09-25T13:25:28.380Z,2412
2017-09-25T13:26:28.386Z,2568
2017-09-25T13:27:28.734Z,2528
2017-09-25T13:28:28.791Z,2824
2017-09-25T13:29:28.458Z,2964
2017-09-25T13:30:28.800Z,3092
2017-09-25T13:31:43.420Z,3064
2017-09-25T13:32:28.578Z,3024
2017-09-25T13:33:28.882Z,2744
2017-09-25T13:34:28.581Z,2752
2017-09-25T13:35:28.597Z,2800
2017-09-25T13:36:28.952Z,2540
2017-09-25T13:37:43.559Z,2280
2017-09-25T13:38:28.989Z,2360
2017-09-25T13:39:43.281Z,2736
2017-09-25T13:40:29.037Z,2916
2017-09-25T13:41:28.422Z,2944
2017-09-25T13:42:29.085Z,2892
2017-09-25T13:43:29.114Z,2832
2017-09-25T13:44:28.809Z,2736
2017-09-25T13:45:29.153Z,2596
2017-09-25T13:46:29.178Z,2680
2017-09-25T13:47:29.200Z,2808
2017-09-25T13:48:29.220Z,2860
2017-09-25T13:49:29.245Z,2892
2017-09-25T13:50:29.276Z,2936
2017-09-25T13:51:29.295Z,2840
2017-09-25T13:52:29.315Z,2788
2017-09-25T13:53:29.019Z,2912
2017-09-25T13:54:29.390Z,2924
2017-09-25T13:55:29.070Z,2800
2017-09-25T13:56:29.413Z,2764
2017-09-25T13:57:29.445Z,2776
2017-09-25T13:58:29.138Z,3088
2017-09-25T14:02:32.868Z,3516
2017-09-25T14:03:16.034Z,3548
2017-09-25T14:04:01.141Z,3576
2017-09-25T14:05:01.156Z,3528
2017-09-25T14:06:01.249Z,3552
2017-09-25T14:07:15.845Z,3380
2017-09-25T14:08:01.624Z,3300
2017-09-25T14:09:20.860Z,3504
2017-09-25T14:10:01.679Z,3612
2017-09-25T14:11:01.698Z,3928
2017-09-25T14:13:01.747Z,4088
2017-09-25T14:14:01.775Z,4144
2017-09-25T14:15:01.468Z,4180
2017-09-25T14:16:01.488Z,4204
2017-09-25T14:17:01.884Z,4264
2017-09-25T14:18:01.864Z,4236
2017-09-25T14:19:01.893Z,4176
2017-09-25T14:20:16.150Z,3852
2017-09-25T14:21:01.943Z,3524
2017-09-25T14:23:16.550Z,3008
2017-09-25T14:24:01.678Z,2940
2017-09-25T14:25:02.025Z,2708
2017-09-25T14:26:02.052Z,2396
2017-09-25T14:28:02.096Z,1968
2017-09-25T14:29:16.710Z,2008
2017-09-25T14:30:16.714Z,1752
2017-09-25T14:31:02.173Z,1680
2017-09-25T14:32:01.863Z,1664
2017-09-25T14:33:02.222Z,1644
2017-09-25T14:34:02.242Z,1584
2017-09-25T14:35:01.938Z,1532
2017-09-25T14:36:02.288Z,1520
2017-09-25T14:37:02.312Z,1644